sensor_id;sensor_type;location;lat;lon;timestamp;pressure;altitude;pressure_sealevel;temperature;humidity
62510;BME280;48558;48.242;11.654;2023-03-05T00:01:51;96461.38;;;-0.30;100.00
62510;BME280;48558;48.242;11.654;2023-03-05T00:06:04;96457.47;;;-0.40;100.00
62510;BME280;48558;48.242;11.654;2023-03-05T00:10:17;96437.69;;;-0.47;100.00
62510;BME280;48558;48.242;11.654;2023-03-05T00:14:29;96447.03;;;-0.59;100.00
62510;BME280;48558;48.242;11.654;2023-03-05T00:18:42;96447.00;;;-0.52;100.00
62510;BME280;48558;48.242;11.654;2023-03-05T00:22:56;96432.66;;;-0.63;100.00
62510;BME280;48558;48.242;11.654;2023-03-05T00:27:08;96435.38;;;-0.38;100.00
62510;BME280;48558;48.242;11.654;2023-03-05T00:31:26;96435.78;;;-0.33;100.00
62510;BME280;48558;48.242;11.654;2023-03-05T00:35:43;96437.31;;;-0.25;100.00
62510;BME280;48558;48.242;11.654;2023-03-05T00:40:08;96426.84;;;-0.23;100.00
62510;BME280;48558;48.242;11.654;2023-03-05T00:44:21;96416.38;;;-0.35;100.00
62510;BME280;48558;48.242;11.654;2023-03-05T00:48:33;96414.41;;;-0.20;100.00
62510;BME280;48558;48.242;11.654;2023-03-05T00:52:46;96404.34;;;-0.16;100.00
62510;BME280;48558;48.242;11.654;2023-03-05T00:56:58;96360.94;;;-0.48;100.00
62510;BME280;48558;48.242;11.654;2023-03-05T01:01:10;96408.25;;;-0.35;100.00
62510;BME280;48558;48.242;11.654;2023-03-05T01:05:23;96404.75;;;-0.35;100.00
62510;BME280;48558;48.242;11.654;2023-03-05T01:09:35;96403.97;;;-0.36;100.00
62510;BME280;48558;48.242;11.654;2023-03-05T01:13:48;96403.97;;;-0.36;100.00
62510;BME280;48558;48.242;11.654;2023-03-05T01:18:01;96401.25;;;-0.29;100.00
62510;BME280;48558;48.242;11.654;2023-03-05T01:22:14;96382.63;;;-0.34;100.00
62510;BME280;48558;48.242;11.654;2023-03-05T01:26:26;96378.72;;;-0.12;100.00
62510;BME280;48558;48.242;11.654;2023-03-05T01:30:47;96389.59;;;-0.05;100.00
62510;BME280;48558;48.242;11.654;2023-03-05T01:35:01;96389.19;;;-0.10;100.00
62510;BME280;48558;48.242;11.654;2023-03-05T01:39:17;96369.38;;;-0.04;100.00
62510;BME280;48558;48.242;11.654;2023-03-05T01:43:30;96370.94;;;0.01;100.00
62510;BME280;48558;48.242;11.654;2023-03-05T01:47:43;96361.66;;;-0.05;100.00
62510;BME280;48558;48.242;11.654;2023-03-05T01:52:20;96372.78;;;0.25;100.00
62510;BME280;48558;48.242;11.654;2023-03-05T01:56:34;96363.91;;;0.14;100.00
62510;BME280;48558;48.242;11.654;2023-03-05T02:00:58;96356.16;;;0.06;100.00
62510;BME280;48558;48.242;11.654;2023-03-05T02:05:21;96358.50;;;0.07;100.00
62510;BME280;48558;48.242;11.654;2023-03-05T02:09:39;96353.44;;;0.09;100.00
62510;BME280;48558;48.242;11.654;2023-03-05T02:13:52;96330.97;;;-0.02;100.00
62510;BME280;48558;48.242;11.654;2023-03-05T02:18:06;96344.88;;;0.14;100.00
62510;BME280;48558;48.242;11.654;2023-03-05T02:22:21;96333.63;;;0.16;100.00
62510;BME280;48558;48.242;11.654;2023-03-05T02:26:35;96323.53;;;0.20;100.00
62510;BME280;48558;48.242;11.654;2023-03-05T02:30:47;96321.94;;;0.29;100.00
62510;BME280;48558;48.242;11.654;2023-03-05T02:35:00;96327.72;;;0.35;100.00
62510;BME280;48558;48.242;11.654;2023-03-05T02:39:13;96320.03;;;0.19;100.00
62510;BME280;48558;48.242;11.654;2023-03-05T02:43:36;96326.63;;;0.22;100.00
62510;BME280;48558;48.242;11.654;2023-03-05T02:47:48;96309.44;;;0.42;100.00
62510;BME280;48558;48.242;11.654;2023-03-05T02:52:01;96309.88;;;0.30;100.00
62510;BME280;48558;48.242;11.654;2023-03-05T02:56:14;96291.59;;;0.34;100.00
62510;BME280;48558;48.242;11.654;2023-03-05T03:00:26;96297.41;;;0.40;100.00
62510;BME280;48558;48.242;11.654;2023-03-05T03:04:39;96278.41;;;0.36;100.00
62510;BME280;48558;48.242;11.654;2023-03-05T03:09:02;96280.22;;;0.57;100.00
62510;BME280;48558;48.242;11.654;2023-03-05T03:13:15;96278.28;;;0.57;100.00
62510;BME280;48558;48.242;11.654;2023-03-05T03:17:28;96275.63;;;0.43;100.00
62510;BME280;48558;48.242;11.654;2023-03-05T03:21:41;96265.16;;;0.45;100.00
62510;BME280;48558;48.242;11.654;2023-03-05T03:25:53;96269.78;;;0.52;100.00
62510;BME280;48558;48.242;11.654;2023-03-05T03:30:16;96258.97;;;0.41;100.00
62510;BME280;48558;48.242;11.654;2023-03-05T03:34:29;96274.31;;;0.69;100.00
62510;BME280;48558;48.242;11.654;2023-03-05T03:38:41;96263.41;;;0.76;100.00
62510;BME280;48558;48.242;11.654;2023-03-05T03:42:54;96271.97;;;0.71;100.00
62510;BME280;48558;48.242;11.654;2023-03-05T03:47:06;96257.72;;;0.56;100.00
62510;BME280;48558;48.242;11.654;2023-03-05T03:51:19;96263.88;;;0.64;100.00
62510;BME280;48558;48.242;11.654;2023-03-05T03:55:39;96250.25;;;0.67;100.00
62510;BME280;48558;48.242;11.654;2023-03-05T03:59:57;96256.34;;;0.82;100.00
62510;BME280;48558;48.242;11.654;2023-03-05T04:04:11;96236.63;;;0.71;100.00
62510;BME280;48558;48.242;11.654;2023-03-05T04:08:25;96251.28;;;0.84;100.00
62510;BME280;48558;48.242;11.654;2023-03-05T04:12:37;96248.22;;;0.79;100.00
62510;BME280;48558;48.242;11.654;2023-03-05T04:16:51;96254.78;;;0.85;100.00
62510;BME280;48558;48.242;11.654;2023-03-05T04:21:04;96238.03;;;0.90;100.00
62510;BME280;48558;48.242;11.654;2023-03-05T04:25:18;96240.44;;;0.81;100.00
62510;BME280;48558;48.242;11.654;2023-03-05T04:29:31;96233.84;;;0.78;100.00
62510;BME280;48558;48.242;11.654;2023-03-05T04:33:44;96216.06;;;0.70;100.00
62510;BME280;48558;48.242;11.654;2023-03-05T04:38:06;96233.44;;;0.83;100.00
62510;BME280;48558;48.242;11.654;2023-03-05T04:42:19;96215.94;;;0.84;100.00
62510;BME280;48558;48.242;11.654;2023-03-05T04:46:32;96209.91;;;0.59;100.00
62510;BME280;48558;48.242;11.654;2023-03-05T04:50:44;96209.81;;;0.73;100.00
62510;BME280;48558;48.242;11.654;2023-03-05T04:54:57;96221.06;;;0.75;100.00
62510;BME280;48558;48.242;11.654;2023-03-05T04:59:09;96203.84;;;0.89;100.00
62510;BME280;48558;48.242;11.654;2023-03-05T05:03:22;96209.78;;;0.77;100.00
62510;BME280;48558;48.242;11.654;2023-03-05T05:07:37;96206.63;;;0.82;100.00
62510;BME280;48558;48.242;11.654;2023-03-05T05:11:50;96198.16;;;0.72;100.00
62510;BME280;48558;48.242;11.654;2023-03-05T05:16:07;96208.97;;;0.80;100.00
62510;BME280;48558;48.242;11.654;2023-03-05T05:20:20;96207.41;;;0.82;100.00
62510;BME280;48558;48.242;11.654;2023-03-05T05:24:33;96196.50;;;0.86;100.00
62510;BME280;48558;48.242;11.654;2023-03-05T05:28:45;96191.97;;;0.72;100.00
62510;BME280;48558;48.242;11.654;2023-03-05T05:32:58;96188.09;;;0.66;100.00
62510;BME280;48558;48.242;11.654;2023-03-05T05:37:10;96204.78;;;0.68;100.00
62510;BME280;48558;48.242;11.654;2023-03-05T05:41:23;96196.66;;;0.64;100.00
62510;BME280;48558;48.242;11.654;2023-03-05T05:45:39;96201.63;;;0.77;100.00
62510;BME280;48558;48.242;11.654;2023-03-05T05:49:52;96196.94;;;0.77;100.00
62510;BME280;48558;48.242;11.654;2023-03-05T05:54:04;96208.22;;;0.79;100.00
62510;BME280;48558;48.242;11.654;2023-03-05T05:58:17;96205.09;;;0.81;100.00
62510;BME280;48558;48.242;11.654;2023-03-05T06:02:29;96198.91;;;0.77;100.00
62510;BME280;48558;48.242;11.654;2023-03-05T06:06:42;96203.88;;;0.85;100.00
62510;BME280;48558;48.242;11.654;2023-03-05T06:10:54;96210.09;;;0.86;100.00
62510;BME280;48558;48.242;11.654;2023-03-05T06:15:07;96204.97;;;0.95;100.00
62510;BME280;48558;48.242;11.654;2023-03-05T06:19:20;96210.47;;;0.88;100.00
62510;BME280;48558;48.242;11.654;2023-03-05T06:23:33;96204.22;;;0.91;100.00
62510;BME280;48558;48.242;11.654;2023-03-05T06:27:46;96205.72;;;0.95;100.00
62510;BME280;48558;48.242;11.654;2023-03-05T06:31:58;96197.25;;;0.90;100.00
62510;BME280;48558;48.242;11.654;2023-03-05T06:36:13;96202.56;;;1.00;100.00
62510;BME280;48558;48.242;11.654;2023-03-05T06:40:27;96200.25;;;0.99;100.00
62510;BME280;48558;48.242;11.654;2023-03-05T06:44:40;96195.44;;;1.17;100.00
62510;BME280;48558;48.242;11.654;2023-03-05T06:48:59;96196.75;;;1.02;100.00
62510;BME280;48558;48.242;11.654;2023-03-05T06:53:12;96181.22;;;0.99;100.00
62510;BME280;48558;48.242;11.654;2023-03-05T06:57:25;96186.47;;;1.20;100.00
62510;BME280;48558;48.242;11.654;2023-03-05T07:01:37;96190.75;;;1.17;100.00
62510;BME280;48558;48.242;11.654;2023-03-05T07:05:50;96189.47;;;1.29;100.00
62510;BME280;48558;48.242;11.654;2023-03-05T07:10:03;96186.00;;;1.25;100.00
62510;BME280;48558;48.242;11.654;2023-03-05T07:14:18;96182.91;;;1.26;100.00
62510;BME280;48558;48.242;11.654;2023-03-05T07:18:30;96177.75;;;1.32;100.00
62510;BME280;48558;48.242;11.654;2023-03-05T07:22:43;96178.25;;;1.23;100.00
62510;BME280;48558;48.242;11.654;2023-03-05T07:26:56;96189.34;;;1.39;100.00
62510;BME280;48558;48.242;11.654;2023-03-05T07:31:19;96187.28;;;1.51;100.00
62510;BME280;48558;48.242;11.654;2023-03-05T07:35:33;96141.09;;;1.43;100.00
62510;BME280;48558;48.242;11.654;2023-03-05T07:39:45;96173.16;;;1.63;100.00
62510;BME280;48558;48.242;11.654;2023-03-05T07:43:58;96183.31;;;1.89;100.00
62510;BME280;48558;48.242;11.654;2023-03-05T07:48:14;96180.94;;;1.61;100.00
62510;BME280;48558;48.242;11.654;2023-03-05T07:52:28;96161.09;;;1.90;100.00
62510;BME280;48558;48.242;11.654;2023-03-05T07:56:46;96172.19;;;1.76;100.00
62510;BME280;48558;48.242;11.654;2023-03-05T08:00:59;96165.19;;;1.75;100.00
62510;BME280;48558;48.242;11.654;2023-03-05T08:05:13;96169.00;;;1.81;100.00
62510;BME280;48558;48.242;11.654;2023-03-05T08:09:26;96158.03;;;1.88;100.00
62510;BME280;48558;48.242;11.654;2023-03-05T08:13:40;96161.16;;;1.87;100.00
62510;BME280;48558;48.242;11.654;2023-03-05T08:17:53;96162.78;;;2.11;100.00
62510;BME280;48558;48.242;11.654;2023-03-05T08:22:05;96158.00;;;1.92;100.00
62510;BME280;48558;48.242;11.654;2023-03-05T08:26:19;96159.16;;;2.17;100.00
62510;BME280;48558;48.242;11.654;2023-03-05T08:30:33;96157.22;;;2.18;100.00
62510;BME280;48558;48.242;11.654;2023-03-05T08:34:46;96154.75;;;2.27;100.00
62510;BME280;48558;48.242;11.654;2023-03-05T08:38:58;96150.00;;;2.31;100.00
62510;BME280;48558;48.242;11.654;2023-03-05T08:43:11;96149.19;;;2.34;100.00
62510;BME280;48558;48.242;11.654;2023-03-05T08:47:23;96151.00;;;2.67;100.00
62510;BME280;48558;48.242;11.654;2023-03-05T08:51:37;96145.19;;;2.65;100.00
62510;BME280;48558;48.242;11.654;2023-03-05T08:55:54;96152.59;;;2.65;100.00
62510;BME280;48558;48.242;11.654;2023-03-05T09:00:08;96144.31;;;2.22;100.00
62510;BME280;48558;48.242;11.654;2023-03-05T09:04:22;96141.25;;;2.43;100.00
62510;BME280;48558;48.242;11.654;2023-03-05T09:08:35;96128.50;;;2.37;100.00
62510;BME280;48558;48.242;11.654;2023-03-05T09:12:48;96116.25;;;2.71;100.00
62510;BME280;48558;48.242;11.654;2023-03-05T09:17:01;96124.69;;;2.57;100.00
62510;BME280;48558;48.242;11.654;2023-03-05T09:21:15;96132.56;;;2.75;100.00
62510;BME280;48558;48.242;11.654;2023-03-05T09:25:28;96123.97;;;2.53;100.00
62510;BME280;48558;48.242;11.654;2023-03-05T09:29:41;96130.50;;;2.59;100.00
62510;BME280;48558;48.242;11.654;2023-03-05T09:33:53;96108.91;;;2.68;100.00
62510;BME280;48558;48.242;11.654;2023-03-05T09:38:06;96124.91;;;2.66;100.00
62510;BME280;48558;48.242;11.654;2023-03-05T09:42:43;96123.56;;;2.78;100.00
62510;BME280;48558;48.242;11.654;2023-03-05T09:47:27;96116.91;;;2.79;100.00
62510;BME280;48558;48.242;11.654;2023-03-05T09:51:54;96106.22;;;2.88;100.00
62510;BME280;48558;48.242;11.654;2023-03-05T09:56:36;96116.44;;;3.04;100.00
62510;BME280;48558;48.242;11.654;2023-03-05T10:01:13;96119.50;;;3.29;100.00
62510;BME280;48558;48.242;11.654;2023-03-05T10:06:04;96111.84;;;3.20;100.00
62510;BME280;48558;48.242;11.654;2023-03-05T10:14:50;96102.19;;;3.16;100.00
62510;BME280;48558;48.242;11.654;2023-03-05T10:19:20;96093.22;;;3.35;100.00
62510;BME280;48558;48.242;11.654;2023-03-05T10:24:16;96096.16;;;3.44;100.00
62510;BME280;48558;48.242;11.654;2023-03-05T10:33:26;96076.09;;;3.34;100.00
62510;BME280;48558;48.242;11.654;2023-03-05T10:43:35;96080.22;;;3.78;100.00
62510;BME280;48558;48.242;11.654;2023-03-05T10:48:05;96073.78;;;3.52;100.00
62510;BME280;48558;48.242;11.654;2023-03-05T10:52:31;96064.78;;;3.88;100.00
62510;BME280;48558;48.242;11.654;2023-03-05T10:56:50;96061.94;;;4.27;100.00
62510;BME280;48558;48.242;11.654;2023-03-05T11:01:31;96056.53;;;4.07;100.00
62510;BME280;48558;48.242;11.654;2023-03-05T11:05:52;96048.66;;;3.93;100.00
62510;BME280;48558;48.242;11.654;2023-03-05T11:10:22;96033.69;;;3.82;100.00
62510;BME280;48558;48.242;11.654;2023-03-05T11:14:38;96041.66;;;4.08;100.00
62510;BME280;48558;48.242;11.654;2023-03-05T11:23:29;96017.56;;;4.19;100.00
62510;BME280;48558;48.242;11.654;2023-03-05T11:27:49;96024.06;;;3.93;100.00
62510;BME280;48558;48.242;11.654;2023-03-05T11:32:34;96017.81;;;3.93;100.00
62510;BME280;48558;48.242;11.654;2023-03-05T11:41:08;96014.88;;;3.68;100.00
62510;BME280;48558;48.242;11.654;2023-03-05T11:45:22;96013.47;;;3.79;100.00
62510;BME280;48558;48.242;11.654;2023-03-05T11:49:44;96003.22;;;4.15;100.00
62510;BME280;48558;48.242;11.654;2023-03-05T11:54:15;96003.38;;;4.08;100.00
62510;BME280;48558;48.242;11.654;2023-03-05T11:58:49;95987.44;;;4.07;100.00
62510;BME280;48558;48.242;11.654;2023-03-05T12:03:16;95988.53;;;3.77;100.00
62510;BME280;48558;48.242;11.654;2023-03-05T12:07:36;95987.94;;;4.02;100.00
62510;BME280;48558;48.242;11.654;2023-03-05T12:11:56;95976.38;;;3.94;100.00
62510;BME280;48558;48.242;11.654;2023-03-05T12:20:53;95964.09;;;4.02;100.00
62510;BME280;48558;48.242;11.654;2023-03-05T12:25:30;95966.13;;;4.14;100.00
62510;BME280;48558;48.242;11.654;2023-03-05T12:29:50;95939.75;;;3.76;100.00
62510;BME280;48558;48.242;11.654;2023-03-05T12:38:55;95935.03;;;3.60;100.00
62510;BME280;48558;48.242;11.654;2023-03-05T12:43:31;95932.59;;;3.66;100.00
62510;BME280;48558;48.242;11.654;2023-03-05T12:47:46;95926.34;;;3.81;100.00
62510;BME280;48558;48.242;11.654;2023-03-05T12:52:25;95922.66;;;3.39;100.00
62510;BME280;48558;48.242;11.654;2023-03-05T12:56:39;95908.44;;;3.64;100.00
62510;BME280;48558;48.242;11.654;2023-03-05T13:01:22;95919.50;;;3.89;100.00
62510;BME280;48558;48.242;11.654;2023-03-05T13:05:48;95883.31;;;3.69;100.00
62510;BME280;48558;48.242;11.654;2023-03-05T13:10:02;95883.25;;;3.73;100.00
62510;BME280;48558;48.242;11.654;2023-03-05T13:18:57;95890.28;;;4.02;100.00
62510;BME280;48558;48.242;11.654;2023-03-05T13:23:24;95882.81;;;3.74;100.00
62510;BME280;48558;48.242;11.654;2023-03-05T13:27:37;95885.38;;;3.65;100.00
62510;BME280;48558;48.242;11.654;2023-03-05T13:36:13;95886.91;;;3.66;100.00
62510;BME280;48558;48.242;11.654;2023-03-05T13:40:29;95872.81;;;3.51;100.00
62510;BME280;48558;48.242;11.654;2023-03-05T13:44:52;95876.50;;;3.77;100.00
62510;BME280;48558;48.242;11.654;2023-03-05T13:49:34;95874.06;;;3.95;100.00
62510;BME280;48558;48.242;11.654;2023-03-05T13:53:57;95871.72;;;3.49;100.00
62510;BME280;48558;48.242;11.654;2023-03-05T14:03:08;95864.03;;;3.60;100.00
62510;BME280;48558;48.242;11.654;2023-03-05T14:07:32;95864.78;;;3.93;100.00
62510;BME280;48558;48.242;11.654;2023-03-05T14:11:53;95868.75;;;3.59;100.00
62510;BME280;48558;48.242;11.654;2023-03-05T14:16:11;95848.91;;;3.72;100.00
62510;BME280;48558;48.242;11.654;2023-03-05T14:20:29;95838.94;;;3.33;100.00
62510;BME280;48558;48.242;11.654;2023-03-05T14:24:50;95842.66;;;3.71;100.00
62510;BME280;48558;48.242;11.654;2023-03-05T14:29:13;95832.28;;;3.50;100.00
62510;BME280;48558;48.242;11.654;2023-03-05T14:33:30;95832.97;;;3.38;100.00
62510;BME280;48558;48.242;11.654;2023-03-05T14:37:45;95835.03;;;3.50;100.00
62510;BME280;48558;48.242;11.654;2023-03-05T14:46:38;95819.47;;;3.15;100.00
62510;BME280;48558;48.242;11.654;2023-03-05T14:50:52;95825.72;;;3.31;100.00
62510;BME280;48558;48.242;11.654;2023-03-05T14:55:16;95816.25;;;3.36;100.00
62510;BME280;48558;48.242;11.654;2023-03-05T14:59:30;95796.69;;;3.21;100.00
62510;BME280;48558;48.242;11.654;2023-03-05T15:03:43;95810.44;;;3.34;100.00
62510;BME280;48558;48.242;11.654;2023-03-05T15:07:56;95810.34;;;3.37;100.00
62510;BME280;48558;48.242;11.654;2023-03-05T15:12:14;95809.16;;;3.38;100.00
62510;BME280;48558;48.242;11.654;2023-03-05T15:16:28;95806.34;;;3.42;100.00
62510;BME280;48558;48.242;11.654;2023-03-05T15:20:50;95800.63;;;3.36;100.00
62510;BME280;48558;48.242;11.654;2023-03-05T15:25:04;95790.91;;;3.19;100.00
62510;BME280;48558;48.242;11.654;2023-03-05T15:29:17;95783.47;;;3.36;100.00
62510;BME280;48558;48.242;11.654;2023-03-05T15:33:29;95796.03;;;3.33;100.00
62510;BME280;48558;48.242;11.654;2023-03-05T15:37:42;95778.03;;;3.20;100.00
62510;BME280;48558;48.242;11.654;2023-03-05T15:41:54;95749.78;;;2.94;100.00
62510;BME280;48558;48.242;11.654;2023-03-05T15:46:17;95766.44;;;3.16;100.00
62510;BME280;48558;48.242;11.654;2023-03-05T15:50:30;95781.78;;;3.10;100.00
62510;BME280;48558;48.242;11.654;2023-03-05T15:54:42;95756.19;;;3.04;100.00
62510;BME280;48558;48.242;11.654;2023-03-05T15:58:55;95729.06;;;2.97;100.00
62510;BME280;48558;48.242;11.654;2023-03-05T16:03:07;95769.00;;;3.23;100.00
62510;BME280;48558;48.242;11.654;2023-03-05T16:07:20;95771.63;;;3.10;100.00
62510;BME280;48558;48.242;11.654;2023-03-05T16:11:36;95766.69;;;3.05;100.00
62510;BME280;48558;48.242;11.654;2023-03-05T16:15:49;95756.13;;;3.07;100.00
62510;BME280;48558;48.242;11.654;2023-03-05T16:20:04;95752.78;;;3.00;100.00
62510;BME280;48558;48.242;11.654;2023-03-05T16:24:22;95740.34;;;2.82;100.00
62510;BME280;48558;48.242;11.654;2023-03-05T16:28:35;95730.44;;;2.72;100.00
62510;BME280;48558;48.242;11.654;2023-03-05T16:32:48;95742.72;;;2.97;100.00
62510;BME280;48558;48.242;11.654;2023-03-05T16:37:03;95736.59;;;2.92;100.00
62510;BME280;48558;48.242;11.654;2023-03-05T16:41:19;95743.63;;;2.74;100.00
62510;BME280;48558;48.242;11.654;2023-03-05T16:45:34;95737.78;;;2.75;100.00
62510;BME280;48558;48.242;11.654;2023-03-05T16:49:48;95739.91;;;2.68;100.00
62510;BME280;48558;48.242;11.654;2023-03-05T16:54:01;95735.38;;;2.77;100.00
62510;BME280;48558;48.242;11.654;2023-03-05T16:58:14;95737.44;;;2.73;100.00
62510;BME280;48558;48.242;11.654;2023-03-05T17:02:27;95700.09;;;2.54;100.00
62510;BME280;48558;48.242;11.654;2023-03-05T17:06:39;95708.19;;;2.58;100.00
62510;BME280;48558;48.242;11.654;2023-03-05T17:10:52;95718.75;;;2.56;100.00
62510;BME280;48558;48.242;11.654;2023-03-05T17:15:14;95726.41;;;2.61;100.00
62510;BME280;48558;48.242;11.654;2023-03-05T17:19:27;95704.19;;;2.46;100.00
62510;BME280;48558;48.242;11.654;2023-03-05T17:23:39;95711.66;;;2.42;100.00
62510;BME280;48558;48.242;11.654;2023-03-05T17:27:52;95709.28;;;2.44;100.00
62510;BME280;48558;48.242;11.654;2023-03-05T17:32:05;95717.47;;;2.60;100.00
62510;BME280;48558;48.242;11.654;2023-03-05T17:36:19;95718.00;;;2.55;100.00
62510;BME280;48558;48.242;11.654;2023-03-05T17:40:32;95722.34;;;2.69;100.00
62510;BME280;48558;48.242;11.654;2023-03-05T17:44:46;95717.28;;;2.51;100.00
62510;BME280;48558;48.242;11.654;2023-03-05T17:48:59;95715.56;;;2.41;100.00
62510;BME280;48558;48.242;11.654;2023-03-05T17:53:12;95716.75;;;2.40;100.00
62510;BME280;48558;48.242;11.654;2023-03-05T17:57:25;95718.47;;;2.34;100.00
62510;BME280;48558;48.242;11.654;2023-03-05T18:01:47;95708.00;;;2.33;100.00
62510;BME280;48558;48.242;11.654;2023-03-05T18:06:10;95721.78;;;2.26;100.00
62510;BME280;48558;48.242;11.654;2023-03-05T18:10:24;95717.09;;;2.26;100.00
62510;BME280;48558;48.242;11.654;2023-03-05T18:14:38;95698.00;;;2.26;100.00
62510;BME280;48558;48.242;11.654;2023-03-05T18:18:51;95715.19;;;2.23;100.00
62510;BME280;48558;48.242;11.654;2023-03-05T18:23:04;95706.84;;;2.14;100.00
62510;BME280;48558;48.242;11.654;2023-03-05T18:27:17;95708.53;;;2.08;100.00
62510;BME280;48558;48.242;11.654;2023-03-05T18:31:29;95715.44;;;2.12;100.00
62510;BME280;48558;48.242;11.654;2023-03-05T18:35:42;95692.69;;;2.03;100.00
62510;BME280;48558;48.242;11.654;2023-03-05T18:39:54;95695.75;;;2.05;100.00
62510;BME280;48558;48.242;11.654;2023-03-05T18:44:09;95700.75;;;2.06;100.00
62510;BME280;48558;48.242;11.654;2023-03-05T18:48:22;95699.09;;;2.12;100.00
62510;BME280;48558;48.242;11.654;2023-03-05T18:52:45;95706.16;;;2.10;100.00
62510;BME280;48558;48.242;11.654;2023-03-05T18:56:58;95682.31;;;2.14;100.00
62510;BME280;48558;48.242;11.654;2023-03-05T19:01:15;95694.31;;;2.16;100.00
62510;BME280;48558;48.242;11.654;2023-03-05T19:05:28;95679.06;;;2.03;100.00
62510;BME280;48558;48.242;11.654;2023-03-05T19:09:48;95666.75;;;1.95;100.00
62510;BME280;48558;48.242;11.654;2023-03-05T19:14:10;95688.53;;;2.14;100.00
62510;BME280;48558;48.242;11.654;2023-03-05T19:18:23;95685.19;;;2.07;100.00
62510;BME280;48558;48.242;11.654;2023-03-05T19:22:37;95680.56;;;2.04;100.00
62510;BME280;48558;48.242;11.654;2023-03-05T19:26:50;95679.72;;;2.07;100.00
62510;BME280;48558;48.242;11.654;2023-03-05T19:31:06;95658.34;;;1.89;100.00
62510;BME280;48558;48.242;11.654;2023-03-05T19:35:19;95681.09;;;1.99;100.00
62510;BME280;48558;48.242;11.654;2023-03-05T19:39:32;95684.31;;;1.94;100.00
62510;BME280;48558;48.242;11.654;2023-03-05T19:43:45;95659.25;;;1.83;100.00
62510;BME280;48558;48.242;11.654;2023-03-05T19:48:00;95676.53;;;1.92;100.00
62510;BME280;48558;48.242;11.654;2023-03-05T19:52:12;95664.19;;;1.88;100.00
62510;BME280;48558;48.242;11.654;2023-03-05T19:56:25;95673.81;;;1.92;100.00
62510;BME280;48558;48.242;11.654;2023-03-05T20:00:38;95649.88;;;1.84;100.00
62510;BME280;48558;48.242;11.654;2023-03-05T20:04:53;95672.97;;;1.95;100.00
62510;BME280;48558;48.242;11.654;2023-03-05T20:09:06;95660.81;;;2.00;100.00
62510;BME280;48558;48.242;11.654;2023-03-05T20:13:19;95667.97;;;1.94;100.00
62510;BME280;48558;48.242;11.654;2023-03-05T20:17:31;95656.88;;;1.85;100.00
62510;BME280;48558;48.242;11.654;2023-03-05T20:21:53;95663.16;;;1.82;100.00
62510;BME280;48558;48.242;11.654;2023-03-05T20:26:06;95643.88;;;1.73;100.00
62510;BME280;48558;48.242;11.654;2023-03-05T20:30:18;95646.94;;;1.75;100.00
62510;BME280;48558;48.242;11.654;2023-03-05T20:34:31;95641.06;;;1.96;100.00
62510;BME280;48558;48.242;11.654;2023-03-05T20:38:45;95664.75;;;1.99;100.00
62510;BME280;48558;48.242;11.654;2023-03-05T20:42:57;95622.63;;;1.84;100.00
62510;BME280;48558;48.242;11.654;2023-03-05T20:47:10;95628.44;;;1.86;100.00
62510;BME280;48558;48.242;11.654;2023-03-05T20:51:47;95638.34;;;1.96;100.00
62510;BME280;48558;48.242;11.654;2023-03-05T20:56:00;95622.28;;;1.82;100.00
62510;BME280;48558;48.242;11.654;2023-03-05T21:00:12;95626.47;;;1.86;100.00
62510;BME280;48558;48.242;11.654;2023-03-05T21:04:25;95598.84;;;1.68;100.00
62510;BME280;48558;48.242;11.654;2023-03-05T21:08:38;95633.00;;;1.73;100.00
62510;BME280;48558;48.242;11.654;2023-03-05T21:12:52;95621.59;;;1.78;100.00
62510;BME280;48558;48.242;11.654;2023-03-05T21:17:07;95628.94;;;1.81;100.00
62510;BME280;48558;48.242;11.654;2023-03-05T21:21:20;95622.72;;;1.61;100.00
62510;BME280;48558;48.242;11.654;2023-03-05T21:25:32;95599.38;;;1.43;100.00
62510;BME280;48558;48.242;11.654;2023-03-05T21:29:45;95610.03;;;1.54;100.00
62510;BME280;48558;48.242;11.654;2023-03-05T21:33:58;95616.34;;;1.51;100.00
62510;BME280;48558;48.242;11.654;2023-03-05T21:38:11;95591.56;;;1.45;100.00
62510;BME280;48558;48.242;11.654;2023-03-05T21:42:25;95590.38;;;1.47;100.00
62510;BME280;48558;48.242;11.654;2023-03-05T21:46:38;95592.00;;;1.44;100.00
62510;BME280;48558;48.242;11.654;2023-03-05T21:50:51;95590.09;;;1.41;100.00
62510;BME280;48558;48.242;11.654;2023-03-05T21:55:05;95554.75;;;1.21;100.00
62510;BME280;48558;48.242;11.654;2023-03-05T21:59:27;95576.78;;;1.47;100.00
62510;BME280;48558;48.242;11.654;2023-03-05T22:03:40;95571.06;;;1.41;100.00
62510;BME280;48558;48.242;11.654;2023-03-05T22:07:53;95564.97;;;1.33;100.00
62510;BME280;48558;48.242;11.654;2023-03-05T22:12:05;95558.84;;;1.29;100.00
62510;BME280;48558;48.242;11.654;2023-03-05T22:16:23;95558.00;;;1.32;100.00
62510;BME280;48558;48.242;11.654;2023-03-05T22:20:37;95556.06;;;1.33;100.00
62510;BME280;48558;48.242;11.654;2023-03-05T22:24:50;95547.75;;;1.20;100.00
62510;BME280;48558;48.242;11.654;2023-03-05T22:29:03;95556.91;;;1.30;100.00
62510;BME280;48558;48.242;11.654;2023-03-05T22:33:15;95556.13;;;1.29;100.00
62510;BME280;48558;48.242;11.654;2023-03-05T22:37:29;95558.00;;;1.32;100.00
62510;BME280;48558;48.242;11.654;2023-03-05T22:41:42;95552.44;;;1.39;100.00
62510;BME280;48558;48.242;11.654;2023-03-05T22:45:54;95538.97;;;1.32;100.00
62510;BME280;48558;48.242;11.654;2023-03-05T22:50:07;95538.63;;;1.30;100.00
62510;BME280;48558;48.242;11.654;2023-03-05T22:54:30;95526.91;;;1.14;100.00
62510;BME280;48558;48.242;11.654;2023-03-05T22:58:43;95539.94;;;1.22;100.00
62510;BME280;48558;48.242;11.654;2023-03-05T23:02:55;95520.78;;;1.10;100.00
62510;BME280;48558;48.242;11.654;2023-03-05T23:07:08;95513.75;;;1.12;100.00
62510;BME280;48558;48.242;11.654;2023-03-05T23:11:21;95521.75;;;1.19;100.00